sensor_id;sensor_type;location;lat;lon;timestamp;P1;durP1;ratioP1;P2;durP2;ratioP2
75760;SDS011;64373;46.136;8.830;2024-03-17T00:00:29;0.73;;;0.20;;
75760;SDS011;64373;46.136;8.830;2024-03-17T00:02:55;0.28;;;0.20;;
75760;SDS011;64373;46.136;8.830;2024-03-17T00:05:21;0.13;;;0.13;;
75760;SDS011;64373;46.136;8.830;2024-03-17T00:07:47;0.43;;;0.25;;
75760;SDS011;64373;46.136;8.830;2024-03-17T00:10:12;0.20;;;0.20;;
75760;SDS011;64373;46.136;8.830;2024-03-17T00:12:38;0.40;;;0.30;;
75760;SDS011;64373;46.136;8.830;2024-03-17T00:15:07;0.20;;;0.20;;
75760;SDS011;64373;46.136;8.830;2024-03-17T00:17:33;0.28;;;0.20;;
75760;SDS011;64373;46.136;8.830;2024-03-17T00:20:00;0.70;;;0.20;;
75760;SDS011;64373;46.136;8.830;2024-03-17T00:22:29;0.40;;;0.25;;
75760;SDS011;64373;46.136;8.830;2024-03-17T00:24:55;0.40;;;0.17;;
75760;SDS011;64373;46.136;8.830;2024-03-17T00:27:21;0.35;;;0.30;;
75760;SDS011;64373;46.136;8.830;2024-03-17T00:29:46;1.27;;;0.20;;
75760;SDS011;64373;46.136;8.830;2024-03-17T00:32:12;1.75;;;0.20;;
75760;SDS011;64373;46.136;8.830;2024-03-17T00:34:37;0.28;;;0.20;;
75760;SDS011;64373;46.136;8.830;2024-03-17T00:37:03;0.28;;;0.20;;
75760;SDS011;64373;46.136;8.830;2024-03-17T00:39:30;0.65;;;0.30;;
75760;SDS011;64373;46.136;8.830;2024-03-17T00:42:00;0.32;;;0.25;;
75760;SDS011;64373;46.136;8.830;2024-03-17T00:44:26;0.28;;;0.20;;
75760;SDS011;64373;46.136;8.830;2024-03-17T00:46:52;0.30;;;0.15;;
75760;SDS011;64373;46.136;8.830;2024-03-17T00:49:17;1.27;;;0.30;;
75760;SDS011;64373;46.136;8.830;2024-03-17T00:51:43;0.30;;;0.20;;
75760;SDS011;64373;46.136;8.830;2024-03-17T00:54:08;0.40;;;0.20;;
75760;SDS011;64373;46.136;8.830;2024-03-17T00:56:34;0.32;;;0.20;;
75760;SDS011;64373;46.136;8.830;2024-03-17T00:58:59;0.90;;;0.10;;
75760;SDS011;64373;46.136;8.830;2024-03-17T01:01:25;0.28;;;0.20;;
75760;SDS011;64373;46.136;8.830;2024-03-17T01:03:50;0.25;;;0.25;;
75760;SDS011;64373;46.136;8.830;2024-03-17T01:06:16;0.20;;;0.13;;
75760;SDS011;64373;46.136;8.830;2024-03-17T01:08:41;0.93;;;0.40;;
75760;SDS011;64373;46.136;8.830;2024-03-17T01:11:13;0.75;;;0.10;;
75760;SDS011;64373;46.136;8.830;2024-03-17T01:13:40;0.88;;;0.28;;
75760;SDS011;64373;46.136;8.830;2024-03-17T01:16:06;0.35;;;0.30;;
75760;SDS011;64373;46.136;8.830;2024-03-17T01:18:32;0.10;;;0.03;;
75760;SDS011;64373;46.136;8.830;2024-03-17T01:20:57;0.20;;;0.20;;
75760;SDS011;64373;46.136;8.830;2024-03-17T01:23:23;0.47;;;0.10;;
75760;SDS011;64373;46.136;8.830;2024-03-17T01:25:48;0.38;;;0.20;;
75760;SDS011;64373;46.136;8.830;2024-03-17T01:28:14;0.93;;;0.20;;
75760;SDS011;64373;46.136;8.830;2024-03-17T01:30:39;0.20;;;0.13;;
75760;SDS011;64373;46.136;8.830;2024-03-17T01:33:05;0.40;;;0.30;;
75760;SDS011;64373;46.136;8.830;2024-03-17T01:35:31;0.32;;;0.20;;
75760;SDS011;64373;46.136;8.830;2024-03-17T01:37:57;0.30;;;0.17;;
75760;SDS011;64373;46.136;8.830;2024-03-17T01:40:22;0.10;;;0.10;;
75760;SDS011;64373;46.136;8.830;2024-03-17T01:42:47;0.32;;;0.17;;
75760;SDS011;64373;46.136;8.830;2024-03-17T01:45:29;0.50;;;0.30;;
75760;SDS011;64373;46.136;8.830;2024-03-17T01:47:58;0.30;;;0.20;;
75760;SDS011;64373;46.136;8.830;2024-03-17T01:50:45;1.40;;;0.20;;
75760;SDS011;64373;46.136;8.830;2024-03-17T01:53:11;0.77;;;0.20;;
75760;SDS011;64373;46.136;8.830;2024-03-17T01:55:38;0.20;;;0.17;;
75760;SDS011;64373;46.136;8.830;2024-03-17T01:58:06;0.55;;;0.10;;
75760;SDS011;64373;46.136;8.830;2024-03-17T02:00:33;0.10;;;0.10;;
75760;SDS011;64373;46.136;8.830;2024-03-17T02:03:01;0.20;;;0.20;;
75760;SDS011;64373;46.136;8.830;2024-03-17T02:05:36;0.30;;;0.10;;
75760;SDS011;64373;46.136;8.830;2024-03-17T02:08:04;0.20;;;0.10;;
75760;SDS011;64373;46.136;8.830;2024-03-17T02:10:31;0.10;;;0.10;;
75760;SDS011;64373;46.136;8.830;2024-03-17T02:12:58;0.60;;;0.28;;
75760;SDS011;64373;46.136;8.830;2024-03-17T02:15:24;0.45;;;0.30;;
75760;SDS011;64373;46.136;8.830;2024-03-17T02:17:50;0.17;;;0.10;;
75760;SDS011;64373;46.136;8.830;2024-03-17T02:20:15;0.20;;;0.20;;
75760;SDS011;64373;46.136;8.830;2024-03-17T02:22:41;0.47;;;0.28;;
75760;SDS011;64373;46.136;8.830;2024-03-17T02:25:06;0.30;;;0.20;;
75760;SDS011;64373;46.136;8.830;2024-03-17T02:27:35;0.73;;;0.20;;
75760;SDS011;64373;46.136;8.830;2024-03-17T02:30:02;0.70;;;0.20;;
75760;SDS011;64373;46.136;8.830;2024-03-17T02:32:29;0.50;;;0.17;;
75760;SDS011;64373;46.136;8.830;2024-03-17T02:34:55;0.38;;;0.20;;
75760;SDS011;64373;46.136;8.830;2024-03-17T02:37:21;1.85;;;0.30;;
75760;SDS011;64373;46.136;8.830;2024-03-17T02:39:47;0.52;;;0.20;;
75760;SDS011;64373;46.136;8.830;2024-03-17T02:42:12;0.22;;;0.17;;
75760;SDS011;64373;46.136;8.830;2024-03-17T02:44:38;0.28;;;0.20;;
75760;SDS011;64373;46.136;8.830;2024-03-17T02:47:05;0.25;;;0.20;;
75760;SDS011;64373;46.136;8.830;2024-03-17T02:49:34;1.67;;;0.20;;
75760;SDS011;64373;46.136;8.830;2024-03-17T02:52:04;0.15;;;0.15;;
75760;SDS011;64373;46.136;8.830;2024-03-17T02:54:31;0.52;;;0.30;;
75760;SDS011;64373;46.136;8.830;2024-03-17T02:56:58;0.43;;;0.20;;
75760;SDS011;64373;46.136;8.830;2024-03-17T02:59:24;0.25;;;0.22;;
75760;SDS011;64373;46.136;8.830;2024-03-17T03:01:49;0.63;;;0.30;;
75760;SDS011;64373;46.136;8.830;2024-03-17T03:04:16;2.45;;;0.20;;
75760;SDS011;64373;46.136;8.830;2024-03-17T03:06:41;0.10;;;0.10;;
75760;SDS011;64373;46.136;8.830;2024-03-17T03:09:06;0.40;;;0.13;;
75760;SDS011;64373;46.136;8.830;2024-03-17T03:11:38;0.20;;;0.20;;
75760;SDS011;64373;46.136;8.830;2024-03-17T03:14:04;0.30;;;0.20;;
75760;SDS011;64373;46.136;8.830;2024-03-17T03:16:30;0.20;;;0.10;;
75760;SDS011;64373;46.136;8.830;2024-03-17T03:18:55;0.30;;;0.15;;
75760;SDS011;64373;46.136;8.830;2024-03-17T03:21:21;0.30;;;0.10;;
75760;SDS011;64373;46.136;8.830;2024-03-17T03:23:47;0.30;;;0.30;;
75760;SDS011;64373;46.136;8.830;2024-03-17T03:26:25;0.50;;;0.20;;
75760;SDS011;64373;46.136;8.830;2024-03-17T03:28:50;0.65;;;0.28;;
75760;SDS011;64373;46.136;8.830;2024-03-17T03:31:15;1.70;;;0.13;;
75760;SDS011;64373;46.136;8.830;2024-03-17T03:33:42;0.25;;;0.10;;
75760;SDS011;64373;46.136;8.830;2024-03-17T03:36:11;0.40;;;0.20;;
75760;SDS011;64373;46.136;8.830;2024-03-17T03:38:38;0.40;;;0.10;;
75760;SDS011;64373;46.136;8.830;2024-03-17T03:41:08;0.10;;;0.10;;
75760;SDS011;64373;46.136;8.830;2024-03-17T03:43:34;0.20;;;0.20;;
75760;SDS011;64373;46.136;8.830;2024-03-17T03:46:00;0.13;;;0.10;;
75760;SDS011;64373;46.136;8.830;2024-03-17T03:48:26;1.17;;;0.20;;
75760;SDS011;64373;46.136;8.830;2024-03-17T03:50:52;0.20;;;0.20;;
75760;SDS011;64373;46.136;8.830;2024-03-17T03:53:19;0.17;;;0.10;;
75760;SDS011;64373;46.136;8.830;2024-03-17T03:55:45;0.25;;;0.25;;
75760;SDS011;64373;46.136;8.830;2024-03-17T03:58:10;0.43;;;0.10;;
75760;SDS011;64373;46.136;8.830;2024-03-17T04:00:37;0.10;;;0.10;;
75760;SDS011;64373;46.136;8.830;2024-03-17T04:03:04;0.15;;;0.00;;
75760;SDS011;64373;46.136;8.830;2024-03-17T04:05:30;0.22;;;0.10;;
75760;SDS011;64373;46.136;8.830;2024-03-17T04:07:55;0.90;;;0.10;;
75760;SDS011;64373;46.136;8.830;2024-03-17T04:10:21;0.20;;;0.15;;
75760;SDS011;64373;46.136;8.830;2024-03-17T04:12:46;0.57;;;0.20;;
75760;SDS011;64373;46.136;8.830;2024-03-17T04:15:13;1.35;;;0.20;;
75760;SDS011;64373;46.136;8.830;2024-03-17T04:17:39;2.97;;;0.20;;
75760;SDS011;64373;46.136;8.830;2024-03-17T04:20:05;0.10;;;0.10;;
75760;SDS011;64373;46.136;8.830;2024-03-17T04:22:35;0.50;;;0.20;;
75760;SDS011;64373;46.136;8.830;2024-03-17T04:25:01;0.10;;;0.10;;
75760;SDS011;64373;46.136;8.830;2024-03-17T04:27:28;0.30;;;0.10;;
75760;SDS011;64373;46.136;8.830;2024-03-17T04:29:55;0.20;;;0.10;;
75760;SDS011;64373;46.136;8.830;2024-03-17T04:32:22;0.95;;;0.08;;
75760;SDS011;64373;46.136;8.830;2024-03-17T04:34:48;0.43;;;0.10;;
75760;SDS011;64373;46.136;8.830;2024-03-17T04:37:14;0.45;;;0.10;;
75760;SDS011;64373;46.136;8.830;2024-03-17T04:39:40;0.20;;;0.10;;
75760;SDS011;64373;46.136;8.830;2024-03-17T04:42:08;0.38;;;0.20;;
75760;SDS011;64373;46.136;8.830;2024-03-17T04:44:34;0.25;;;0.10;;
75760;SDS011;64373;46.136;8.830;2024-03-17T04:46:59;0.25;;;0.20;;
75760;SDS011;64373;46.136;8.830;2024-03-17T04:49:25;0.20;;;0.10;;
75760;SDS011;64373;46.136;8.830;2024-03-17T04:51:50;0.40;;;0.20;;
75760;SDS011;64373;46.136;8.830;2024-03-17T04:54:16;0.28;;;0.22;;
75760;SDS011;64373;46.136;8.830;2024-03-17T04:56:41;0.20;;;0.10;;
75760;SDS011;64373;46.136;8.830;2024-03-17T04:59:07;0.43;;;0.20;;
75760;SDS011;64373;46.136;8.830;2024-03-17T05:01:32;0.77;;;0.20;;
75760;SDS011;64373;46.136;8.830;2024-03-17T05:04:02;0.20;;;0.13;;
75760;SDS011;64373;46.136;8.830;2024-03-17T05:06:30;0.43;;;0.22;;
75760;SDS011;64373;46.136;8.830;2024-03-17T05:08:56;0.10;;;0.10;;
75760;SDS011;64373;46.136;8.830;2024-03-17T05:11:21;0.47;;;0.10;;
75760;SDS011;64373;46.136;8.830;2024-03-17T05:13:49;0.32;;;0.10;;
75760;SDS011;64373;46.136;8.830;2024-03-17T05:16:14;0.80;;;0.28;;
75760;SDS011;64373;46.136;8.830;2024-03-17T05:18:40;0.30;;;0.10;;
75760;SDS011;64373;46.136;8.830;2024-03-17T05:21:06;1.25;;;0.25;;
75760;SDS011;64373;46.136;8.830;2024-03-17T05:23:36;0.32;;;0.20;;
75760;SDS011;64373;46.136;8.830;2024-03-17T05:26:02;0.52;;;0.20;;
75760;SDS011;64373;46.136;8.830;2024-03-17T05:28:29;0.22;;;0.20;;
75760;SDS011;64373;46.136;8.830;2024-03-17T05:30:55;0.75;;;0.13;;
75760;SDS011;64373;46.136;8.830;2024-03-17T05:33:22;0.20;;;0.10;;
75760;SDS011;64373;46.136;8.830;2024-03-17T05:35:49;0.17;;;0.13;;
75760;SDS011;64373;46.136;8.830;2024-03-17T05:38:22;0.30;;;0.13;;
75760;SDS011;64373;46.136;8.830;2024-03-17T05:40:59;0.35;;;0.10;;
75760;SDS011;64373;46.136;8.830;2024-03-17T05:43:26;0.28;;;0.20;;
75760;SDS011;64373;46.136;8.830;2024-03-17T05:45:58;0.15;;;0.10;;
75760;SDS011;64373;46.136;8.830;2024-03-17T05:48:26;0.10;;;0.10;;
75760;SDS011;64373;46.136;8.830;2024-03-17T05:50:52;0.52;;;0.20;;
75760;SDS011;64373;46.136;8.830;2024-03-17T05:53:18;0.30;;;0.20;;
75760;SDS011;64373;46.136;8.830;2024-03-17T05:55:44;1.23;;;0.10;;
75760;SDS011;64373;46.136;8.830;2024-03-17T05:58:10;0.45;;;0.10;;
75760;SDS011;64373;46.136;8.830;2024-03-17T06:00:36;0.10;;;0.10;;
75760;SDS011;64373;46.136;8.830;2024-03-17T06:03:02;0.65;;;0.20;;
75760;SDS011;64373;46.136;8.830;2024-03-17T06:05:31;0.52;;;0.20;;
75760;SDS011;64373;46.136;8.830;2024-03-17T06:08:01;0.10;;;0.10;;
75760;SDS011;64373;46.136;8.830;2024-03-17T06:10:37;0.15;;;0.10;;
75760;SDS011;64373;46.136;8.830;2024-03-17T06:13:07;0.28;;;0.10;;
75760;SDS011;64373;46.136;8.830;2024-03-17T06:15:37;0.20;;;0.10;;
75760;SDS011;64373;46.136;8.830;2024-03-17T06:18:02;0.10;;;0.10;;
75760;SDS011;64373;46.136;8.830;2024-03-17T06:20:28;0.63;;;0.20;;
75760;SDS011;64373;46.136;8.830;2024-03-17T06:22:54;0.50;;;0.10;;
75760;SDS011;64373;46.136;8.830;2024-03-17T06:25:20;0.10;;;0.03;;
75760;SDS011;64373;46.136;8.830;2024-03-17T06:27:49;0.10;;;0.10;;
75760;SDS011;64373;46.136;8.830;2024-03-17T06:30:17;0.68;;;0.30;;
75760;SDS011;64373;46.136;8.830;2024-03-17T06:32:44;0.40;;;0.15;;
75760;SDS011;64373;46.136;8.830;2024-03-17T06:35:11;0.38;;;0.15;;
75760;SDS011;64373;46.136;8.830;2024-03-17T06:37:51;0.20;;;0.15;;
75760;SDS011;64373;46.136;8.830;2024-03-17T06:40:17;0.17;;;0.10;;
75760;SDS011;64373;46.136;8.830;2024-03-17T06:42:43;0.17;;;0.17;;
75760;SDS011;64373;46.136;8.830;2024-03-17T06:45:08;0.45;;;0.25;;
75760;SDS011;64373;46.136;8.830;2024-03-17T06:47:34;0.30;;;0.30;;
75760;SDS011;64373;46.136;8.830;2024-03-17T06:50:02;0.45;;;0.15;;
75760;SDS011;64373;46.136;8.830;2024-03-17T06:52:28;0.40;;;0.20;;
75760;SDS011;64373;46.136;8.830;2024-03-17T06:54:53;0.15;;;0.10;;
75760;SDS011;64373;46.136;8.830;2024-03-17T06:57:19;0.10;;;0.10;;
75760;SDS011;64373;46.136;8.830;2024-03-17T06:59:44;0.10;;;0.03;;
75760;SDS011;64373;46.136;8.830;2024-03-17T07:02:11;0.10;;;0.10;;
75760;SDS011;64373;46.136;8.830;2024-03-17T07:04:40;0.60;;;0.40;;
75760;SDS011;64373;46.136;8.830;2024-03-17T07:07:06;0.10;;;0.10;;
75760;SDS011;64373;46.136;8.830;2024-03-17T07:09:31;0.35;;;0.10;;
75760;SDS011;64373;46.136;8.830;2024-03-17T07:11:57;0.15;;;0.00;;
75760;SDS011;64373;46.136;8.830;2024-03-17T07:14:22;0.32;;;0.10;;
75760;SDS011;64373;46.136;8.830;2024-03-17T07:16:50;0.30;;;0.10;;
75760;SDS011;64373;46.136;8.830;2024-03-17T07:19:16;0.40;;;0.10;;
75760;SDS011;64373;46.136;8.830;2024-03-17T07:21:41;0.00;;;0.00;;
75760;SDS011;64373;46.136;8.830;2024-03-17T07:24:07;0.10;;;0.10;;
75760;SDS011;64373;46.136;8.830;2024-03-17T07:26:32;0.03;;;0.03;;
75760;SDS011;64373;46.136;8.830;2024-03-17T07:28:58;0.15;;;0.03;;
75760;SDS011;64373;46.136;8.830;2024-03-17T07:31:23;0.22;;;0.10;;
75760;SDS011;64373;46.136;8.830;2024-03-17T07:33:49;0.20;;;0.20;;
75760;SDS011;64373;46.136;8.830;2024-03-17T07:36:14;0.30;;;0.20;;
75760;SDS011;64373;46.136;8.830;2024-03-17T07:38:40;0.30;;;0.20;;
75760;SDS011;64373;46.136;8.830;2024-03-17T07:41:06;0.80;;;0.30;;
75760;SDS011;64373;46.136;8.830;2024-03-17T07:43:33;0.73;;;0.28;;
75760;SDS011;64373;46.136;8.830;2024-03-17T07:46:03;0.70;;;0.30;;
75760;SDS011;64373;46.136;8.830;2024-03-17T07:48:30;0.30;;;0.20;;
75760;SDS011;64373;46.136;8.830;2024-03-17T07:50:56;0.30;;;0.20;;
75760;SDS011;64373;46.136;8.830;2024-03-17T07:53:23;0.22;;;0.22;;
75760;SDS011;64373;46.136;8.830;2024-03-17T07:56:02;1.10;;;0.25;;
75760;SDS011;64373;46.136;8.830;2024-03-17T07:58:29;0.88;;;0.25;;
75760;SDS011;64373;46.136;8.830;2024-03-17T08:01:05;1.27;;;0.20;;
75760;SDS011;64373;46.136;8.830;2024-03-17T08:03:32;0.47;;;0.20;;
75760;SDS011;64373;46.136;8.830;2024-03-17T08:05:59;0.10;;;0.10;;
75760;SDS011;64373;46.136;8.830;2024-03-17T08:08:25;0.20;;;0.20;;
75760;SDS011;64373;46.136;8.830;2024-03-17T08:10:51;1.77;;;0.22;;
75760;SDS011;64373;46.136;8.830;2024-03-17T08:13:17;0.20;;;0.20;;
75760;SDS011;64373;46.136;8.830;2024-03-17T08:15:44;0.20;;;0.20;;
75760;SDS011;64373;46.136;8.830;2024-03-17T08:18:13;0.98;;;0.40;;
75760;SDS011;64373;46.136;8.830;2024-03-17T08:20:42;0.20;;;0.20;;
75760;SDS011;64373;46.136;8.830;2024-03-17T08:23:11;0.52;;;0.25;;
75760;SDS011;64373;46.136;8.830;2024-03-17T08:25:37;0.45;;;0.45;;
75760;SDS011;64373;46.136;8.830;2024-03-17T08:28:03;0.32;;;0.22;;
75760;SDS011;64373;46.136;8.830;2024-03-17T08:30:29;1.17;;;0.20;;
75760;SDS011;64373;46.136;8.830;2024-03-17T08:32:57;0.47;;;0.28;;
75760;SDS011;64373;46.136;8.830;2024-03-17T08:35:23;0.30;;;0.20;;
75760;SDS011;64373;46.136;8.830;2024-03-17T08:37:49;0.30;;;0.20;;
75760;SDS011;64373;46.136;8.830;2024-03-17T08:40:16;0.52;;;0.20;;
75760;SDS011;64373;46.136;8.830;2024-03-17T08:42:42;0.28;;;0.20;;
75760;SDS011;64373;46.136;8.830;2024-03-17T08:45:10;0.43;;;0.20;;
75760;SDS011;64373;46.136;8.830;2024-03-17T08:47:37;0.50;;;0.20;;
75760;SDS011;64373;46.136;8.830;2024-03-17T08:50:02;0.38;;;0.10;;
75760;SDS011;64373;46.136;8.830;2024-03-17T08:52:29;0.32;;;0.25;;
75760;SDS011;64373;46.136;8.830;2024-03-17T08:54:58;0.45;;;0.40;;
75760;SDS011;64373;46.136;8.830;2024-03-17T08:57:24;0.30;;;0.30;;
75760;SDS011;64373;46.136;8.830;2024-03-17T08:59:50;0.73;;;0.30;;
75760;SDS011;64373;46.136;8.830;2024-03-17T09:02:18;0.93;;;0.38;;
75760;SDS011;64373;46.136;8.830;2024-03-17T09:04:45;0.50;;;0.40;;
75760;SDS011;64373;46.136;8.830;2024-03-17T09:07:10;0.93;;;0.43;;
75760;SDS011;64373;46.136;8.830;2024-03-17T09:09:36;0.40;;;0.30;;
75760;SDS011;64373;46.136;8.830;2024-03-17T09:12:01;0.75;;;0.50;;
75760;SDS011;64373;46.136;8.830;2024-03-17T09:14:29;0.52;;;0.38;;
75760;SDS011;64373;46.136;8.830;2024-03-17T09:16:54;0.20;;;0.20;;
75760;SDS011;64373;46.136;8.830;2024-03-17T09:19:21;0.55;;;0.38;;
75760;SDS011;64373;46.136;8.830;2024-03-17T09:21:47;0.30;;;0.30;;
75760;SDS011;64373;46.136;8.830;2024-03-17T09:24:12;1.60;;;1.50;;
75760;SDS011;64373;46.136;8.830;2024-03-17T09:26:38;1.60;;;1.50;;
75760;SDS011;64373;46.136;8.830;2024-03-17T09:29:04;2.22;;;1.70;;
75760;SDS011;64373;46.136;8.830;2024-03-17T09:31:30;1.48;;;1.23;;
75760;SDS011;64373;46.136;8.830;2024-03-17T09:33:59;0.68;;;0.60;;
75760;SDS011;64373;46.136;8.830;2024-03-17T09:36:24;0.73;;;0.60;;
75760;SDS011;64373;46.136;8.830;2024-03-17T09:38:50;0.60;;;0.40;;
75760;SDS011;64373;46.136;8.830;2024-03-17T09:41:24;0.63;;;0.30;;
75760;SDS011;64373;46.136;8.830;2024-03-17T09:43:54;0.90;;;0.20;;
75760;SDS011;64373;46.136;8.830;2024-03-17T09:46:22;0.77;;;0.30;;
75760;SDS011;64373;46.136;8.830;2024-03-17T09:48:52;0.38;;;0.30;;
75760;SDS011;64373;46.136;8.830;2024-03-17T09:51:22;1.00;;;0.25;;
75760;SDS011;64373;46.136;8.830;2024-03-17T09:53:49;0.60;;;0.43;;
75760;SDS011;64373;46.136;8.830;2024-03-17T09:56:15;1.25;;;0.32;;
75760;SDS011;64373;46.136;8.830;2024-03-17T09:58:44;0.30;;;0.20;;
75760;SDS011;64373;46.136;8.830;2024-03-17T10:01:16;0.32;;;0.30;;
75760;SDS011;64373;46.136;8.830;2024-03-17T10:03:48;0.30;;;0.30;;
75760;SDS011;64373;46.136;8.830;2024-03-17T10:06:17;0.43;;;0.30;;
75760;SDS011;64373;46.136;8.830;2024-03-17T10:08:53;0.73;;;0.20;;
75760;SDS011;64373;46.136;8.830;2024-03-17T10:11:32;0.80;;;0.38;;
75760;SDS011;64373;46.136;8.830;2024-03-17T10:14:06;0.98;;;0.30;;
75760;SDS011;64373;46.136;8.830;2024-03-17T10:16:35;0.73;;;0.30;;
75760;SDS011;64373;46.136;8.830;2024-03-17T10:19:12;0.32;;;0.30;;
75760;SDS011;64373;46.136;8.830;2024-03-17T10:21:42;1.25;;;0.20;;
75760;SDS011;64373;46.136;8.830;2024-03-17T10:24:19;1.98;;;0.35;;
75760;SDS011;64373;46.136;8.830;2024-03-17T10:26:48;1.45;;;0.20;;
75760;SDS011;64373;46.136;8.830;2024-03-17T10:31:55;0.30;;;0.30;;
75760;SDS011;64373;46.136;8.830;2024-03-17T10:34:21;1.10;;;0.20;;
75760;SDS011;64373;46.136;8.830;2024-03-17T10:39:48;0.35;;;0.20;;
75760;SDS011;64373;46.136;8.830;2024-03-17T10:42:16;0.50;;;0.20;;
75760;SDS011;64373;46.136;8.830;2024-03-17T10:44:53;0.20;;;0.20;;
75760;SDS011;64373;46.136;8.830;2024-03-17T10:49:50;1.00;;;0.30;;
75760;SDS011;64373;46.136;8.830;2024-03-17T10:52:17;0.95;;;0.20;;
75760;SDS011;64373;46.136;8.830;2024-03-17T10:54:47;0.47;;;0.40;;
75760;SDS011;64373;46.136;8.830;2024-03-17T11:00:02;0.50;;;0.40;;
75760;SDS011;64373;46.136;8.830;2024-03-17T11:02:33;0.90;;;0.45;;
75760;SDS011;64373;46.136;8.830;2024-03-17T11:07:33;0.10;;;0.10;;
75760;SDS011;64373;46.136;8.830;2024-03-17T11:10:02;0.30;;;0.20;;
75760;SDS011;64373;46.136;8.830;2024-03-17T11:12:42;0.20;;;0.20;;
75760;SDS011;64373;46.136;8.830;2024-03-17T11:20:36;0.47;;;0.20;;
75760;SDS011;64373;46.136;8.830;2024-03-17T11:23:04;0.77;;;0.30;;
75760;SDS011;64373;46.136;8.830;2024-03-17T11:25:39;0.38;;;0.30;;
75760;SDS011;64373;46.136;8.830;2024-03-17T11:28:07;0.43;;;0.13;;
75760;SDS011;64373;46.136;8.830;2024-03-17T11:39:01;0.68;;;0.43;;
75760;SDS011;64373;46.136;8.830;2024-03-17T11:41:45;0.30;;;0.20;;
75760;SDS011;64373;46.136;8.830;2024-03-17T11:47:00;0.50;;;0.50;;
75760;SDS011;64373;46.136;8.830;2024-03-17T11:54:34;0.70;;;0.25;;
75760;SDS011;64373;46.136;8.830;2024-03-17T11:57:01;0.47;;;0.20;;
75760;SDS011;64373;46.136;8.830;2024-03-17T11:59:27;0.45;;;0.40;;
75760;SDS011;64373;46.136;8.830;2024-03-17T12:01:54;0.55;;;0.30;;
75760;SDS011;64373;46.136;8.830;2024-03-17T12:04:21;0.20;;;0.20;;
75760;SDS011;64373;46.136;8.830;2024-03-17T12:06:50;0.93;;;0.20;;
75760;SDS011;64373;46.136;8.830;2024-03-17T12:09:21;0.75;;;0.10;;
75760;SDS011;64373;46.136;8.830;2024-03-17T12:11:50;0.10;;;0.10;;
75760;SDS011;64373;46.136;8.830;2024-03-17T12:14:20;0.40;;;0.20;;
75760;SDS011;64373;46.136;8.830;2024-03-17T12:16:49;0.43;;;0.30;;
75760;SDS011;64373;46.136;8.830;2024-03-17T12:19:17;0.88;;;0.40;;
75760;SDS011;64373;46.136;8.830;2024-03-17T12:21:43;1.17;;;0.32;;
75760;SDS011;64373;46.136;8.830;2024-03-17T12:24:14;0.38;;;0.30;;
75760;SDS011;64373;46.136;8.830;2024-03-17T12:26:44;0.65;;;0.50;;
75760;SDS011;64373;46.136;8.830;2024-03-17T12:32:09;0.20;;;0.20;;
75760;SDS011;64373;46.136;8.830;2024-03-17T12:34:35;0.55;;;0.35;;
75760;SDS011;64373;46.136;8.830;2024-03-17T12:37:01;0.40;;;0.25;;
75760;SDS011;64373;46.136;8.830;2024-03-17T12:39:28;0.30;;;0.30;;
75760;SDS011;64373;46.136;8.830;2024-03-17T12:44:30;0.28;;;0.17;;
75760;SDS011;64373;46.136;8.830;2024-03-17T12:47:03;0.20;;;0.20;;
75760;SDS011;64373;46.136;8.830;2024-03-17T12:49:33;0.43;;;0.40;;
75760;SDS011;64373;46.136;8.830;2024-03-17T12:52:01;0.68;;;0.40;;
75760;SDS011;64373;46.136;8.830;2024-03-17T12:54:28;0.43;;;0.20;;
75760;SDS011;64373;46.136;8.830;2024-03-17T12:57:09;1.33;;;0.40;;
75760;SDS011;64373;46.136;8.830;2024-03-17T12:59:53;0.82;;;0.40;;
75760;SDS011;64373;46.136;8.830;2024-03-17T13:02:21;0.40;;;0.22;;
75760;SDS011;64373;46.136;8.830;2024-03-17T13:05:04;0.63;;;0.30;;
75760;SDS011;64373;46.136;8.830;2024-03-17T13:07:51;1.95;;;0.43;;
75760;SDS011;64373;46.136;8.830;2024-03-17T13:10:19;0.50;;;0.38;;
75760;SDS011;64373;46.136;8.830;2024-03-17T13:12:45;1.17;;;0.50;;
75760;SDS011;64373;46.136;8.830;2024-03-17T13:15:12;0.95;;;0.30;;
75760;SDS011;64373;46.136;8.830;2024-03-17T13:17:40;1.23;;;0.38;;
75760;SDS011;64373;46.136;8.830;2024-03-17T13:20:15;0.20;;;0.20;;
75760;SDS011;64373;46.136;8.830;2024-03-17T13:22:42;0.82;;;0.43;;
75760;SDS011;64373;46.136;8.830;2024-03-17T13:25:12;0.50;;;0.30;;
75760;SDS011;64373;46.136;8.830;2024-03-17T13:27:42;0.25;;;0.25;;
75760;SDS011;64373;46.136;8.830;2024-03-17T13:30:10;0.47;;;0.45;;
75760;SDS011;64373;46.136;8.830;2024-03-17T13:32:36;0.40;;;0.30;;
75760;SDS011;64373;46.136;8.830;2024-03-17T13:35:02;0.52;;;0.22;;
75760;SDS011;64373;46.136;8.830;2024-03-17T13:37:28;0.20;;;0.20;;
75760;SDS011;64373;46.136;8.830;2024-03-17T13:39:54;0.30;;;0.30;;
75760;SDS011;64373;46.136;8.830;2024-03-17T13:42:19;0.47;;;0.30;;
75760;SDS011;64373;46.136;8.830;2024-03-17T13:44:45;0.75;;;0.25;;
75760;SDS011;64373;46.136;8.830;2024-03-17T13:47:11;0.82;;;0.20;;
75760;SDS011;64373;46.136;8.830;2024-03-17T13:49:38;0.50;;;0.30;;
75760;SDS011;64373;46.136;8.830;2024-03-17T13:52:03;0.63;;;0.30;;
75760;SDS011;64373;46.136;8.830;2024-03-17T13:54:29;0.70;;;0.30;;
75760;SDS011;64373;46.136;8.830;2024-03-17T13:56:55;0.55;;;0.20;;
75760;SDS011;64373;46.136;8.830;2024-03-17T13:59:23;0.32;;;0.20;;
75760;SDS011;64373;46.136;8.830;2024-03-17T14:01:50;1.20;;;0.30;;
75760;SDS011;64373;46.136;8.830;2024-03-17T14:04:16;0.50;;;0.20;;
75760;SDS011;64373;46.136;8.830;2024-03-17T14:06:43;0.40;;;0.40;;
75760;SDS011;64373;46.136;8.830;2024-03-17T14:09:09;0.98;;;0.20;;
75760;SDS011;64373;46.136;8.830;2024-03-17T14:11:35;0.50;;;0.30;;
75760;SDS011;64373;46.136;8.830;2024-03-17T14:14:01;0.50;;;0.20;;
75760;SDS011;64373;46.136;8.830;2024-03-17T14:16:29;0.30;;;0.30;;
75760;SDS011;64373;46.136;8.830;2024-03-17T14:18:56;0.32;;;0.30;;
75760;SDS011;64373;46.136;8.830;2024-03-17T14:21:23;0.77;;;0.40;;
75760;SDS011;64373;46.136;8.830;2024-03-17T14:23:48;0.47;;;0.47;;
75760;SDS011;64373;46.136;8.830;2024-03-17T14:26:14;0.68;;;0.32;;
75760;SDS011;64373;46.136;8.830;2024-03-17T14:28:39;0.68;;;0.30;;
75760;SDS011;64373;46.136;8.830;2024-03-17T14:31:05;1.60;;;0.25;;
75760;SDS011;64373;46.136;8.830;2024-03-17T14:33:31;0.95;;;0.30;;
75760;SDS011;64373;46.136;8.830;2024-03-17T14:35:57;0.50;;;0.22;;
75760;SDS011;64373;46.136;8.830;2024-03-17T14:38:22;1.17;;;0.40;;
75760;SDS011;64373;46.136;8.830;2024-03-17T14:40:50;0.95;;;0.30;;
75760;SDS011;64373;46.136;8.830;2024-03-17T14:43:16;0.57;;;0.40;;
75760;SDS011;64373;46.136;8.830;2024-03-17T14:45:42;0.90;;;0.32;;
75760;SDS011;64373;46.136;8.830;2024-03-17T14:48:07;0.88;;;0.40;;
75760;SDS011;64373;46.136;8.830;2024-03-17T14:50:34;0.88;;;0.40;;
75760;SDS011;64373;46.136;8.830;2024-03-17T14:53:01;0.95;;;0.30;;
75760;SDS011;64373;46.136;8.830;2024-03-17T14:55:27;0.35;;;0.30;;
75760;SDS011;64373;46.136;8.830;2024-03-17T14:57:53;0.80;;;0.30;;
75760;SDS011;64373;46.136;8.830;2024-03-17T15:00:19;1.00;;;0.50;;
75760;SDS011;64373;46.136;8.830;2024-03-17T15:02:45;1.00;;;0.47;;
75760;SDS011;64373;46.136;8.830;2024-03-17T15:05:15;1.33;;;0.22;;
75760;SDS011;64373;46.136;8.830;2024-03-17T15:07:41;0.38;;;0.30;;
75760;SDS011;64373;46.136;8.830;2024-03-17T15:10:07;0.85;;;0.20;;
75760;SDS011;64373;46.136;8.830;2024-03-17T15:12:33;0.20;;;0.20;;
75760;SDS011;64373;46.136;8.830;2024-03-17T15:14:58;0.20;;;0.20;;
75760;SDS011;64373;46.136;8.830;2024-03-17T15:17:24;0.30;;;0.20;;
75760;SDS011;64373;46.136;8.830;2024-03-17T15:19:50;0.30;;;0.30;;
75760;SDS011;64373;46.136;8.830;2024-03-17T15:22:15;0.65;;;0.40;;
75760;SDS011;64373;46.136;8.830;2024-03-17T15:24:41;0.65;;;0.32;;
75760;SDS011;64373;46.136;8.830;2024-03-17T15:27:07;0.70;;;0.40;;
75760;SDS011;64373;46.136;8.830;2024-03-17T15:29:35;0.55;;;0.40;;